UPS291 EFHK-ESMS
Flight info
| Callsign | UPS291 |
|---|---|
| Flight time | 1h 18m |
| Altitude | 36000 |
| Route | NUNTO Y369 REKDO DCT KOSKA DCT KOTAM L990 EKRAL |
| Aircraft | MD11/H-SDE1E2E3FGHIJ2J3J4J5M1RWXY/LB1D1 |
Departure
| Time | 2026-05-04 14:18 |
|---|---|
| Airport | Helsinki Vantaa Airport (EFHK) |
Arrival
| Time | 2026-05-04 15:36 |
|---|---|
| Airport | Malmö Sturup Airport (ESMS) |
| Time | Latitude | Longitude | Altitude | Speed | Heading |
|---|---|---|---|---|---|
| 2026-05-04 13:43 | 60.30910 | 24.99264 | 169 ft | 0 kts | 63° |
| 2026-05-04 14:01 | 60.30905 | 24.99244 | 169 ft | 4 kts | 67° |
| 2026-05-04 14:01 | 60.30886 | 24.99162 | 169 ft | 4 kts | 25° |
| 2026-05-04 14:02 | 60.30874 | 24.99158 | 169 ft | 4 kts | 329° |
| 2026-05-04 14:02 | 60.30851 | 24.99186 | 169 ft | 4 kts | 330° |
| 2026-05-04 14:02 | 60.30841 | 24.99198 | 169 ft | 1 kts | 335° |
| 2026-05-04 14:02 | 60.30837 | 24.99201 | 169 ft | 0 kts | 335° |
| 2026-05-04 14:06 | 60.30839 | 24.99199 | 169 ft | 2 kts | 335° |
| 2026-05-04 14:06 | 60.30867 | 24.99173 | 169 ft | 7 kts | 334° |
| 2026-05-04 14:06 | 60.30927 | 24.99113 | 169 ft | 13 kts | 332° |
| 2026-05-04 14:07 | 60.31010 | 24.99026 | 169 ft | 13 kts | 333° |
| 2026-05-04 14:07 | 60.31087 | 24.98946 | 169 ft | 11 kts | 330° |
| 2026-05-04 14:07 | 60.31111 | 24.98880 | 169 ft | 4 kts | 274° |
| 2026-05-04 14:07 | 60.31100 | 24.98805 | 169 ft | 8 kts | 244° |
| 2026-05-04 14:08 | 60.31068 | 24.98674 | 167 ft | 13 kts | 244° |
| 2026-05-04 14:08 | 60.31013 | 24.98463 | 163 ft | 18 kts | 240° |
| 2026-05-04 14:08 | 60.30968 | 24.98295 | 168 ft | 9 kts | 243° |
| 2026-05-04 14:08 | 60.30973 | 24.98230 | 168 ft | 3 kts | 308° |
| 2026-05-04 14:09 | 60.31050 | 24.98146 | 169 ft | 11 kts | 333° |
| 2026-05-04 14:09 | 60.31133 | 24.98062 | 169 ft | 15 kts | 332° |
| 2026-05-04 14:10 | 60.31356 | 24.97831 | 168 ft | 18 kts | 332° |
| 2026-05-04 14:10 | 60.31473 | 24.97710 | 168 ft | 19 kts | 332° |
| 2026-05-04 14:10 | 60.31596 | 24.97582 | 168 ft | 20 kts | 333° |
| 2026-05-04 14:10 | 60.31722 | 24.97452 | 168 ft | 20 kts | 332° |
| 2026-05-04 14:11 | 60.31846 | 24.97323 | 168 ft | 19 kts | 331° |
| 2026-05-04 14:11 | 60.32062 | 24.97102 | 168 ft | 16 kts | 332° |
| 2026-05-04 14:11 | 60.32156 | 24.97005 | 168 ft | 15 kts | 334° |
| 2026-05-04 14:12 | 60.32252 | 24.96903 | 168 ft | 15 kts | 333° |
| 2026-05-04 14:12 | 60.32339 | 24.96813 | 169 ft | 13 kts | 333° |
| 2026-05-04 14:12 | 60.32485 | 24.96661 | 170 ft | 13 kts | 330° |
| 2026-05-04 14:13 | 60.32585 | 24.96549 | 169 ft | 18 kts | 330° |
| 2026-05-04 14:13 | 60.32692 | 24.96427 | 169 ft | 17 kts | 331° |
| 2026-05-04 14:13 | 60.32793 | 24.96313 | 169 ft | 18 kts | 332° |
| 2026-05-04 14:13 | 60.32899 | 24.96196 | 169 ft | 15 kts | 331° |
| 2026-05-04 14:14 | 60.32922 | 24.96125 | 169 ft | 3 kts | 262° |
| 2026-05-04 14:14 | 60.32898 | 24.95989 | 169 ft | 4 kts | 278° |
| 2026-05-04 14:14 | 60.32918 | 24.95952 | 169 ft | 6 kts | 322° |
| 2026-05-04 14:15 | 60.33071 | 24.95755 | 169 ft | 19 kts | 322° |
| 2026-05-04 14:15 | 60.33195 | 24.95375 | 169 ft | 14 kts | 242° |
| 2026-05-04 14:16 | 60.33107 | 24.95101 | 169 ft | 12 kts | 260° |
| 2026-05-04 14:16 | 60.33111 | 24.94909 | 169 ft | 16 kts | 274° |
| 2026-05-04 14:17 | 60.33120 | 24.94454 | 178 ft | 10 kts | 265° |
| 2026-05-04 14:17 | 60.33105 | 24.94369 | 181 ft | 4 kts | 239° |
| 2026-05-04 14:17 | 60.32831 | 24.93754 | 181 ft | 98 kts | 226° |
| 2026-05-04 14:18 | 60.32183 | 24.92335 | 205 ft | 168 kts | 228° |
| 2026-05-04 14:18 | 60.30735 | 24.88647 | 2134 ft | 169 kts | 252° |
| 2026-05-04 14:19 | 60.30505 | 24.83791 | 3606 ft | 191 kts | 269° |
| 2026-05-04 14:19 | 60.30495 | 24.80932 | 4099 ft | 217 kts | 269° |
| 2026-05-04 14:19 | 60.30261 | 24.77759 | 4464 ft | 241 kts | 254° |
| 2026-05-04 14:19 | 60.29705 | 24.74547 | 5487 ft | 243 kts | 250° |
| 2026-05-04 14:20 | 60.29069 | 24.71326 | 6452 ft | 251 kts | 249° |
| 2026-05-04 14:20 | 60.28409 | 24.68060 | 7515 ft | 252 kts | 249° |
| 2026-05-04 14:20 | 60.27754 | 24.64834 | 8572 ft | 252 kts | 248° |
| 2026-05-04 14:21 | 60.26419 | 24.58262 | 10550 ft | 255 kts | 248° |
| 2026-05-04 14:21 | 60.25744 | 24.54949 | 11492 ft | 256 kts | 248° |
| 2026-05-04 14:21 | 60.25064 | 24.51614 | 12432 ft | 258 kts | 248° |
| 2026-05-04 14:21 | 60.24312 | 24.48304 | 13328 ft | 263 kts | 244° |
| 2026-05-04 14:22 | 60.23423 | 24.44847 | 13515 ft | 294 kts | 243° |
| 2026-05-04 14:22 | 60.22412 | 24.41057 | 13651 ft | 320 kts | 243° |
| 2026-05-04 14:22 | 60.21322 | 24.37004 | 14036 ft | 335 kts | 242° |
| 2026-05-04 14:22 | 60.20206 | 24.32866 | 14797 ft | 338 kts | 242° |
| 2026-05-04 14:23 | 60.17945 | 24.24490 | 16300 ft | 344 kts | 242° |
| 2026-05-04 14:23 | 60.16797 | 24.20244 | 17043 ft | 348 kts | 242° |
| 2026-05-04 14:23 | 60.15639 | 24.15961 | 17766 ft | 351 kts | 242° |
| 2026-05-04 14:24 | 60.14467 | 24.11636 | 18384 ft | 354 kts | 242° |
| 2026-05-04 14:24 | 60.13287 | 24.07287 | 19012 ft | 356 kts | 242° |
| 2026-05-04 14:24 | 60.12096 | 24.02904 | 19610 ft | 359 kts | 242° |
| 2026-05-04 14:24 | 60.10894 | 23.98493 | 20182 ft | 362 kts | 242° |
| 2026-05-04 14:25 | 60.09682 | 23.94050 | 20778 ft | 364 kts | 242° |
| 2026-05-04 14:25 | 60.07250 | 23.85032 | 21980 ft | 371 kts | 242° |
| 2026-05-04 14:25 | 60.06036 | 23.80436 | 22569 ft | 374 kts | 242° |
| 2026-05-04 14:26 | 60.04836 | 23.75868 | 23203 ft | 377 kts | 242° |
| 2026-05-04 14:26 | 60.03614 | 23.71208 | 23724 ft | 380 kts | 242° |
| 2026-05-04 14:26 | 60.02378 | 23.66501 | 24276 ft | 383 kts | 242° |
| 2026-05-04 14:26 | 60.01138 | 23.61781 | 24836 ft | 385 kts | 242° |
| 2026-05-04 14:27 | 59.99880 | 23.57006 | 25400 ft | 388 kts | 242° |
| 2026-05-04 14:27 | 59.98615 | 23.52213 | 25955 ft | 391 kts | 242° |
| 2026-05-04 14:27 | 59.97337 | 23.47382 | 26497 ft | 394 kts | 242° |
| 2026-05-04 14:27 | 59.96052 | 23.42533 | 27039 ft | 397 kts | 242° |
| 2026-05-04 14:28 | 59.94752 | 23.37641 | 27570 ft | 400 kts | 242° |
| 2026-05-04 14:28 | 59.93450 | 23.32748 | 28099 ft | 403 kts | 242° |
| 2026-05-04 14:28 | 59.92127 | 23.27792 | 28615 ft | 406 kts | 242° |
| 2026-05-04 14:28 | 59.90794 | 23.22806 | 29123 ft | 410 kts | 242° |
| 2026-05-04 14:29 | 59.88086 | 23.12717 | 29997 ft | 416 kts | 241° |
| 2026-05-04 14:29 | 59.85352 | 23.02574 | 30720 ft | 420 kts | 241° |
| 2026-05-04 14:30 | 59.83972 | 22.97468 | 31174 ft | 420 kts | 241° |
| 2026-05-04 14:30 | 59.82585 | 22.92352 | 31666 ft | 419 kts | 242° |
| 2026-05-04 14:30 | 59.79810 | 22.82150 | 32501 ft | 419 kts | 242° |
| 2026-05-04 14:31 | 59.78419 | 22.77059 | 32925 ft | 419 kts | 241° |
| 2026-05-04 14:31 | 59.75597 | 22.66931 | 33725 ft | 419 kts | 241° |
| 2026-05-04 14:32 | 59.72782 | 22.56818 | 34311 ft | 419 kts | 241° |
| 2026-05-04 14:32 | 59.71380 | 22.51759 | 34602 ft | 420 kts | 241° |
| 2026-05-04 14:32 | 59.69973 | 22.46684 | 34872 ft | 420 kts | 241° |
| 2026-05-04 14:32 | 59.68567 | 22.41613 | 35141 ft | 421 kts | 241° |
| 2026-05-04 14:33 | 59.67154 | 22.36527 | 35401 ft | 421 kts | 241° |
| 2026-05-04 14:33 | 59.65739 | 22.31443 | 35623 ft | 423 kts | 241° |
| 2026-05-04 14:33 | 59.64318 | 22.26350 | 35673 ft | 423 kts | 241° |
| 2026-05-04 14:34 | 59.61489 | 22.16243 | 35698 ft | 423 kts | 241° |
| 2026-05-04 14:34 | 59.58650 | 22.06148 | 35702 ft | 423 kts | 241° |
| 2026-05-04 14:35 | 59.55786 | 21.96010 | 35709 ft | 423 kts | 241° |
| 2026-05-04 14:35 | 59.52918 | 21.85900 | 35704 ft | 422 kts | 241° |
| 2026-05-04 14:36 | 59.50048 | 21.75831 | 35690 ft | 422 kts | 241° |
| 2026-05-04 14:36 | 59.47180 | 21.65810 | 35702 ft | 422 kts | 241° |
| 2026-05-04 14:37 | 59.44283 | 21.55762 | 35711 ft | 422 kts | 240° |
| 2026-05-04 14:37 | 59.41348 | 21.45762 | 35714 ft | 422 kts | 240° |
| 2026-05-04 14:38 | 59.38428 | 21.35756 | 35696 ft | 422 kts | 241° |
| 2026-05-04 14:38 | 59.35517 | 21.25753 | 35718 ft | 422 kts | 241° |
| 2026-05-04 14:39 | 59.32602 | 21.15754 | 35717 ft | 422 kts | 240° |
| 2026-05-04 14:39 | 59.29677 | 21.05768 | 35709 ft | 423 kts | 241° |
| 2026-05-04 14:40 | 59.25277 | 20.90825 | 35707 ft | 422 kts | 240° |
| 2026-05-04 14:40 | 59.22356 | 20.80960 | 35709 ft | 422 kts | 240° |
| 2026-05-04 14:41 | 59.19299 | 20.71165 | 35710 ft | 423 kts | 235° |
| 2026-05-04 14:42 | 59.11521 | 20.53899 | 35682 ft | 424 kts | 230° |
| 2026-05-04 14:42 | 59.07545 | 20.45381 | 35713 ft | 425 kts | 230° |
| 2026-05-04 14:43 | 59.03603 | 20.36862 | 35713 ft | 425 kts | 230° |
| 2026-05-04 14:43 | 58.99673 | 20.28280 | 35719 ft | 425 kts | 231° |
| 2026-05-04 14:44 | 58.95833 | 20.19559 | 35716 ft | 425 kts | 231° |
| 2026-05-04 14:44 | 58.92019 | 20.10898 | 35722 ft | 425 kts | 231° |
| 2026-05-04 14:45 | 58.88164 | 20.02219 | 35710 ft | 425 kts | 231° |
| 2026-05-04 14:45 | 58.84298 | 19.93567 | 35726 ft | 425 kts | 231° |
| 2026-05-04 14:46 | 58.80420 | 19.84923 | 35724 ft | 426 kts | 231° |
| 2026-05-04 14:46 | 58.76532 | 19.76290 | 35724 ft | 426 kts | 231° |
| 2026-05-04 14:47 | 58.72645 | 19.67691 | 35727 ft | 426 kts | 231° |
| 2026-05-04 14:47 | 58.68774 | 19.59158 | 35727 ft | 426 kts | 231° |
| 2026-05-04 14:48 | 58.64874 | 19.50594 | 35729 ft | 426 kts | 231° |
| 2026-05-04 14:48 | 58.61592 | 19.43411 | 35729 ft | 427 kts | 231° |
| 2026-05-04 14:49 | 58.57697 | 19.34915 | 35729 ft | 427 kts | 231° |
| 2026-05-04 14:49 | 58.53771 | 19.26384 | 35726 ft | 427 kts | 231° |
| 2026-05-04 14:50 | 58.49835 | 19.17863 | 35727 ft | 427 kts | 231° |
| 2026-05-04 14:50 | 58.45873 | 19.09387 | 35701 ft | 427 kts | 230° |
| 2026-05-04 14:51 | 58.41891 | 19.00953 | 35728 ft | 428 kts | 231° |
| 2026-05-04 14:51 | 58.37922 | 18.92501 | 35735 ft | 428 kts | 231° |
| 2026-05-04 14:52 | 58.33946 | 18.84026 | 35728 ft | 429 kts | 231° |
| 2026-05-04 14:52 | 58.29988 | 18.75610 | 35733 ft | 429 kts | 231° |
| 2026-05-04 14:53 | 58.26002 | 18.67167 | 35730 ft | 429 kts | 231° |
| 2026-05-04 14:53 | 58.22009 | 18.58740 | 35726 ft | 429 kts | 231° |
| 2026-05-04 14:54 | 58.18011 | 18.50334 | 35732 ft | 429 kts | 231° |
| 2026-05-04 14:54 | 58.14002 | 18.41935 | 35735 ft | 429 kts | 231° |
| 2026-05-04 14:55 | 58.09993 | 18.33566 | 35735 ft | 429 kts | 230° |
| 2026-05-04 14:55 | 58.05977 | 18.25215 | 35741 ft | 429 kts | 230° |
| 2026-05-04 14:56 | 58.01952 | 18.16873 | 35740 ft | 429 kts | 230° |
| 2026-05-04 14:56 | 57.97923 | 18.08554 | 35737 ft | 429 kts | 230° |
| 2026-05-04 14:57 | 57.93887 | 18.00251 | 35747 ft | 429 kts | 230° |
| 2026-05-04 14:57 | 57.89824 | 17.91997 | 35749 ft | 430 kts | 230° |
| 2026-05-04 14:58 | 57.85786 | 17.83860 | 35747 ft | 430 kts | 230° |
| 2026-05-04 14:58 | 57.81719 | 17.75622 | 35740 ft | 430 kts | 230° |
| 2026-05-04 14:59 | 57.77660 | 17.67394 | 35723 ft | 430 kts | 230° |
| 2026-05-04 15:00 | 57.71558 | 17.55071 | 35740 ft | 430 kts | 230° |
| 2026-05-04 15:00 | 57.67509 | 17.46931 | 35756 ft | 430 kts | 230° |
| 2026-05-04 15:01 | 57.61389 | 17.34684 | 35736 ft | 430 kts | 230° |
| 2026-05-04 15:01 | 57.57299 | 17.26534 | 35737 ft | 430 kts | 230° |
| 2026-05-04 15:02 | 57.53209 | 17.18414 | 35743 ft | 430 kts | 230° |
| 2026-05-04 15:02 | 57.49111 | 17.10306 | 35741 ft | 430 kts | 230° |
| 2026-05-04 15:03 | 57.45032 | 17.02265 | 35742 ft | 430 kts | 230° |
| 2026-05-04 15:03 | 57.40917 | 16.94180 | 35749 ft | 432 kts | 229° |
| 2026-05-04 15:04 | 57.36772 | 16.86063 | 35744 ft | 434 kts | 229° |
| 2026-05-04 15:04 | 57.32593 | 16.77995 | 35748 ft | 434 kts | 229° |
| 2026-05-04 15:05 | 57.28402 | 16.69948 | 35754 ft | 434 kts | 229° |
| 2026-05-04 15:05 | 57.24228 | 16.61894 | 35761 ft | 434 kts | 229° |
| 2026-05-04 15:06 | 57.20059 | 16.53850 | 35754 ft | 434 kts | 229° |
| 2026-05-04 15:07 | 57.13794 | 16.41805 | 35767 ft | 434 kts | 229° |
| 2026-05-04 15:07 | 57.09637 | 16.33851 | 35754 ft | 434 kts | 229° |
| 2026-05-04 15:08 | 57.05451 | 16.25868 | 35777 ft | 434 kts | 229° |
| 2026-05-04 15:08 | 57.01257 | 16.17897 | 35773 ft | 434 kts | 229° |
| 2026-05-04 15:09 | 56.97051 | 16.09933 | 35782 ft | 434 kts | 229° |
| 2026-05-04 15:09 | 56.92841 | 16.01988 | 35792 ft | 436 kts | 229° |
| 2026-05-04 15:10 | 56.86490 | 15.90054 | 35786 ft | 436 kts | 229° |
| 2026-05-04 15:11 | 56.80140 | 15.78184 | 35800 ft | 436 kts | 229° |
| 2026-05-04 15:11 | 56.75880 | 15.70303 | 35797 ft | 436 kts | 228° |
| 2026-05-04 15:12 | 56.71597 | 15.62465 | 35809 ft | 436 kts | 228° |
| 2026-05-04 15:12 | 56.67323 | 15.54606 | 35407 ft | 438 kts | 228° |
| 2026-05-04 15:12 | 56.65195 | 15.50689 | 34875 ft | 433 kts | 228° |
| 2026-05-04 15:13 | 56.63104 | 15.46843 | 34388 ft | 433 kts | 229° |
| 2026-05-04 15:13 | 56.61000 | 15.42976 | 33904 ft | 433 kts | 229° |
| 2026-05-04 15:13 | 56.58883 | 15.39093 | 33356 ft | 433 kts | 229° |
| 2026-05-04 15:13 | 56.56760 | 15.35201 | 32858 ft | 434 kts | 229° |
| 2026-05-04 15:14 | 56.54629 | 15.31304 | 32340 ft | 435 kts | 229° |
| 2026-05-04 15:14 | 56.52492 | 15.27403 | 31868 ft | 435 kts | 229° |
| 2026-05-04 15:14 | 56.50353 | 15.23505 | 31324 ft | 436 kts | 229° |
| 2026-05-04 15:14 | 56.48208 | 15.19603 | 30774 ft | 437 kts | 229° |
| 2026-05-04 15:15 | 56.46086 | 15.15749 | 30218 ft | 438 kts | 229° |
| 2026-05-04 15:15 | 56.43930 | 15.11839 | 29513 ft | 442 kts | 228° |
| 2026-05-04 15:15 | 56.41749 | 15.07892 | 28852 ft | 443 kts | 228° |
| 2026-05-04 15:16 | 56.37379 | 15.00006 | 27573 ft | 445 kts | 228° |
| 2026-05-04 15:16 | 56.35182 | 14.96052 | 26940 ft | 446 kts | 228° |
| 2026-05-04 15:16 | 56.30814 | 14.88215 | 25691 ft | 439 kts | 228° |
| 2026-05-04 15:17 | 56.28661 | 14.84361 | 25083 ft | 434 kts | 228° |
| 2026-05-04 15:17 | 56.24408 | 14.76768 | 23899 ft | 426 kts | 228° |
| 2026-05-04 15:17 | 56.22316 | 14.73040 | 23245 ft | 421 kts | 228° |
| 2026-05-04 15:18 | 56.20244 | 14.69355 | 22598 ft | 416 kts | 228° |
| 2026-05-04 15:18 | 56.18193 | 14.65730 | 22002 ft | 412 kts | 228° |
| 2026-05-04 15:18 | 56.16148 | 14.62155 | 21421 ft | 409 kts | 228° |
| 2026-05-04 15:19 | 56.12123 | 14.55114 | 20283 ft | 403 kts | 228° |
| 2026-05-04 15:19 | 56.10123 | 14.51600 | 19730 ft | 400 kts | 228° |
| 2026-05-04 15:19 | 56.06177 | 14.44664 | 18633 ft | 395 kts | 228° |
| 2026-05-04 15:20 | 56.04226 | 14.41235 | 18074 ft | 392 kts | 228° |
| 2026-05-04 15:20 | 56.02287 | 14.37832 | 17468 ft | 389 kts | 227° |
| 2026-05-04 15:20 | 56.00366 | 14.34468 | 16876 ft | 386 kts | 227° |
| 2026-05-04 15:20 | 55.98452 | 14.31118 | 16348 ft | 384 kts | 227° |
| 2026-05-04 15:21 | 55.96551 | 14.27796 | 15822 ft | 381 kts | 227° |
| 2026-05-04 15:21 | 55.94655 | 14.24489 | 15285 ft | 380 kts | 227° |
| 2026-05-04 15:21 | 55.90925 | 14.17996 | 14210 ft | 375 kts | 227° |
| 2026-05-04 15:22 | 55.89065 | 14.14765 | 13667 ft | 373 kts | 227° |
| 2026-05-04 15:22 | 55.87214 | 14.11554 | 13085 ft | 370 kts | 227° |
| 2026-05-04 15:22 | 55.83549 | 14.05212 | 11984 ft | 364 kts | 227° |
| 2026-05-04 15:23 | 55.81739 | 14.02086 | 11488 ft | 362 kts | 227° |
| 2026-05-04 15:23 | 55.79920 | 13.99013 | 11152 ft | 361 kts | 224° |
| 2026-05-04 15:23 | 55.77878 | 13.96459 | 11005 ft | 350 kts | 215° |
| 2026-05-04 15:23 | 55.75805 | 13.94434 | 10893 ft | 329 kts | 212° |
| 2026-05-04 15:24 | 55.71960 | 13.91005 | 10711 ft | 291 kts | 212° |
| 2026-05-04 15:24 | 55.68489 | 13.87891 | 10213 ft | 272 kts | 212° |
| 2026-05-04 15:25 | 55.66831 | 13.86382 | 9739 ft | 272 kts | 212° |
| 2026-05-04 15:25 | 55.65146 | 13.84843 | 9230 ft | 272 kts | 212° |
| 2026-05-04 15:25 | 55.63470 | 13.83312 | 8756 ft | 271 kts | 212° |
| 2026-05-04 15:26 | 55.60140 | 13.80273 | 7846 ft | 269 kts | 212° |
| 2026-05-04 15:26 | 55.58482 | 13.78762 | 7427 ft | 267 kts | 212° |
| 2026-05-04 15:26 | 55.55243 | 13.75840 | 6930 ft | 252 kts | 212° |
| 2026-05-04 15:27 | 55.53708 | 13.74516 | 6878 ft | 242 kts | 212° |
| 2026-05-04 15:27 | 55.50702 | 13.71928 | 6746 ft | 240 kts | 211° |
| 2026-05-04 15:28 | 55.47699 | 13.69342 | 6627 ft | 240 kts | 211° |
| 2026-05-04 15:28 | 55.46209 | 13.68061 | 6562 ft | 239 kts | 211° |
| 2026-05-04 15:28 | 55.43215 | 13.65492 | 6352 ft | 239 kts | 211° |
| 2026-05-04 15:29 | 55.41723 | 13.64213 | 6221 ft | 239 kts | 211° |
| 2026-05-04 15:30 | 55.35760 | 13.59111 | 5703 ft | 237 kts | 212° |
| 2026-05-04 15:30 | 55.32795 | 13.52825 | 5315 ft | 226 kts | 246° |
| 2026-05-04 15:31 | 55.32304 | 13.47576 | 5066 ft | 215 kts | 285° |
| 2026-05-04 15:31 | 55.33017 | 13.45375 | 4932 ft | 206 kts | 310° |
| 2026-05-04 15:32 | 55.36486 | 13.41384 | 4299 ft | 207 kts | 342° |
| 2026-05-04 15:32 | 55.39223 | 13.40562 | 3329 ft | 189 kts | 347° |
| 2026-05-04 15:33 | 55.41697 | 13.40064 | 2510 ft | 166 kts | 348° |
| 2026-05-04 15:34 | 55.45018 | 13.39379 | 1732 ft | 161 kts | 348° |
| 2026-05-04 15:34 | 55.46122 | 13.39154 | 1493 ft | 158 kts | 348° |
| 2026-05-04 15:34 | 55.48298 | 13.38716 | 1031 ft | 157 kts | 348° |
| 2026-05-04 15:35 | 55.50095 | 13.38318 | 683 ft | 155 kts | 349° |
| 2026-05-04 15:35 | 55.51161 | 13.38118 | 510 ft | 153 kts | 351° |
| 2026-05-04 15:35 | 55.52224 | 13.37913 | 305 ft | 153 kts | 350° |
| 2026-05-04 15:36 | 55.53895 | 13.37567 | 247 ft | 68 kts | 353° |
| 2026-05-04 15:36 | 55.54173 | 13.37518 | 247 ft | 20 kts | 356° |
| 2026-05-04 15:36 | 55.54221 | 13.37467 | 246 ft | 2 kts | 279° |
| 2026-05-04 15:37 | 55.54221 | 13.37411 | 244 ft | 11 kts | 267° |
| 2026-05-04 15:37 | 55.54211 | 13.37260 | 239 ft | 10 kts | 262° |
| 2026-05-04 15:37 | 55.54199 | 13.37226 | 239 ft | 0 kts | 214° |
| 2026-05-04 15:37 | 55.54192 | 13.37221 | 239 ft | 2 kts | 199° |
| 2026-05-04 15:38 | 55.54164 | 13.37220 | 239 ft | 6 kts | 180° |
| 2026-05-04 15:38 | 55.54106 | 13.37230 | 239 ft | 11 kts | 175° |
| 2026-05-04 15:38 | 55.54015 | 13.37245 | 239 ft | 14 kts | 174° |
| 2026-05-04 15:38 | 55.53966 | 13.37234 | 239 ft | 2 kts | 216° |
| 2026-05-04 15:39 | 55.53964 | 13.37225 | 239 ft | 1 kts | 236° |
| 2026-05-04 15:39 | 55.53964 | 13.37204 | 239 ft | 3 kts | 268° |
| 2026-05-04 15:39 | 55.53950 | 13.37077 | 238 ft | 2 kts | 228° |
| 2026-05-04 15:40 | 55.53945 | 13.37069 | 238 ft | 1 kts | 219° |
| 2026-05-04 15:40 | 55.53939 | 13.37066 | 238 ft | 0 kts | 201° |
| 2026-05-04 15:40 | 55.53936 | 13.37067 | 238 ft | 0 kts | 188° |
| 2026-05-04 15:40 | 55.53925 | 13.37070 | 238 ft | 4 kts | 175° |
| 2026-05-04 15:41 | 55.53897 | 13.37076 | 238 ft | 1 kts | 173° |
| 2026-05-04 15:41 | 55.53891 | 13.37077 | 238 ft | 0 kts | 173° |
| 2026-05-04 15:41 | 55.53888 | 13.37077 | 238 ft | 1 kts | 173° |
| 2026-05-04 15:41 | 55.53887 | 13.37078 | 238 ft | 0 kts | 173° |